SWA8972 KJAX-KCLT
Flight info
| Callsign | SWA8972 |
|---|---|
| Flight time | 1h 2m |
| Altitude | 33000 |
| Route | BRSTL1 BAXLY PONZE BANKR5 |
| Aircraft | B739/M-SDE2E3FGHIRWXY/LB1 |
Departure
| Time | 2026-05-04 01:10 |
|---|---|
| Airport | Jacksonville International Airport (KJAX) |
Arrival
| Time | 2026-05-04 02:13 |
|---|---|
| Airport | Charlotte Douglas International Airport (KCLT) |
| Time | Latitude | Longitude | Altitude | Speed | Heading |
|---|---|---|---|---|---|
| 2026-05-04 00:53 | 30.49296 | -81.68504 | 34 ft | 0 kts | 265° |
| 2026-05-04 00:59 | 30.49297 | -81.68496 | 34 ft | 4 kts | 265° |
| 2026-05-04 00:59 | 30.49300 | -81.68465 | 34 ft | 4 kts | 262° |
| 2026-05-04 00:59 | 30.49301 | -81.68436 | 34 ft | 4 kts | 290° |
| 2026-05-04 00:59 | 30.49297 | -81.68426 | 34 ft | 0 kts | 355° |
| 2026-05-04 01:05 | 30.49300 | -81.68426 | 34 ft | 1 kts | 355° |
| 2026-05-04 01:05 | 30.49324 | -81.68425 | 34 ft | 6 kts | 8° |
| 2026-05-04 01:05 | 30.49384 | -81.68419 | 34 ft | 11 kts | 5° |
| 2026-05-04 01:06 | 30.49464 | -81.68457 | 34 ft | 14 kts | 314° |
| 2026-05-04 01:06 | 30.49473 | -81.68576 | 34 ft | 18 kts | 264° |
| 2026-05-04 01:06 | 30.49423 | -81.68719 | 34 ft | 21 kts | 231° |
| 2026-05-04 01:06 | 30.49379 | -81.68865 | 34 ft | 18 kts | 265° |
| 2026-05-04 01:07 | 30.49430 | -81.68993 | 34 ft | 19 kts | 325° |
| 2026-05-04 01:07 | 30.49544 | -81.69083 | 34 ft | 20 kts | 328° |
| 2026-05-04 01:07 | 30.49668 | -81.69175 | 32 ft | 22 kts | 308° |
| 2026-05-04 01:07 | 30.49648 | -81.69338 | 35 ft | 21 kts | 249° |
| 2026-05-04 01:08 | 30.49600 | -81.69494 | 35 ft | 20 kts | 251° |
| 2026-05-04 01:08 | 30.49550 | -81.69655 | 33 ft | 22 kts | 250° |
| 2026-05-04 01:08 | 30.49496 | -81.69828 | 34 ft | 22 kts | 250° |
| 2026-05-04 01:08 | 30.49510 | -81.69942 | 34 ft | 12 kts | 337° |
| 2026-05-04 01:09 | 30.49590 | -81.69966 | 33 ft | 8 kts | 356° |
| 2026-05-04 01:09 | 30.49642 | -81.69932 | 32 ft | 10 kts | 58° |
| 2026-05-04 01:09 | 30.49668 | -81.69851 | 34 ft | 14 kts | 71° |
| 2026-05-04 01:09 | 30.49776 | -81.69499 | 36 ft | 82 kts | 70° |
| 2026-05-04 01:10 | 30.50039 | -81.68638 | 36 ft | 142 kts | 70° |
| 2026-05-04 01:10 | 30.50417 | -81.67420 | 269 ft | 168 kts | 72° |
| 2026-05-04 01:10 | 30.50764 | -81.66151 | 1004 ft | 166 kts | 73° |
| 2026-05-04 01:10 | 30.51528 | -81.65101 | 1566 ft | 177 kts | 24° |
| 2026-05-04 01:11 | 30.52766 | -81.65106 | 2191 ft | 193 kts | 338° |
| 2026-05-04 01:11 | 30.53961 | -81.65991 | 2465 ft | 218 kts | 327° |
| 2026-05-04 01:11 | 30.55291 | -81.67015 | 2725 ft | 238 kts | 328° |
| 2026-05-04 01:11 | 30.56708 | -81.68077 | 3271 ft | 243 kts | 328° |
| 2026-05-04 01:12 | 30.58129 | -81.69120 | 3980 ft | 241 kts | 328° |
| 2026-05-04 01:12 | 30.59572 | -81.70160 | 4515 ft | 251 kts | 328° |
| 2026-05-04 01:12 | 30.61110 | -81.71251 | 5031 ft | 264 kts | 328° |
| 2026-05-04 01:12 | 30.62674 | -81.72349 | 5917 ft | 263 kts | 328° |
| 2026-05-04 01:13 | 30.64261 | -81.73454 | 6738 ft | 266 kts | 328° |
| 2026-05-04 01:13 | 30.65867 | -81.74566 | 7469 ft | 271 kts | 328° |
| 2026-05-04 01:13 | 30.67497 | -81.75692 | 8226 ft | 274 kts | 328° |
| 2026-05-04 01:13 | 30.69146 | -81.76827 | 9011 ft | 277 kts | 327° |
| 2026-05-04 01:14 | 30.70823 | -81.77981 | 9737 ft | 282 kts | 327° |
| 2026-05-04 01:14 | 30.72504 | -81.79138 | 10359 ft | 290 kts | 327° |
| 2026-05-04 01:14 | 30.74312 | -81.80384 | 10546 ft | 313 kts | 327° |
| 2026-05-04 01:14 | 30.76252 | -81.81720 | 10753 ft | 335 kts | 327° |
| 2026-05-04 01:15 | 30.78324 | -81.83145 | 10913 ft | 355 kts | 327° |
| 2026-05-04 01:15 | 30.80509 | -81.84647 | 11067 ft | 373 kts | 327° |
| 2026-05-04 01:15 | 30.82781 | -81.86209 | 11386 ft | 383 kts | 327° |
| 2026-05-04 01:15 | 30.85086 | -81.87793 | 11948 ft | 386 kts | 327° |
| 2026-05-04 01:16 | 30.87398 | -81.89385 | 12556 ft | 387 kts | 326° |
| 2026-05-04 01:16 | 30.89713 | -81.91004 | 13140 ft | 389 kts | 326° |
| 2026-05-04 01:16 | 30.92032 | -81.92639 | 13720 ft | 391 kts | 325° |
| 2026-05-04 01:16 | 30.94369 | -81.94287 | 14210 ft | 393 kts | 325° |
| 2026-05-04 01:17 | 30.96692 | -81.95923 | 14687 ft | 397 kts | 325° |
| 2026-05-04 01:17 | 30.99102 | -81.97523 | 15115 ft | 403 kts | 330° |
| 2026-05-04 01:17 | 31.01686 | -81.98835 | 15588 ft | 407 kts | 334° |
| 2026-05-04 01:17 | 31.04329 | -82.00067 | 16053 ft | 410 kts | 334° |
| 2026-05-04 01:18 | 31.06995 | -82.01290 | 16457 ft | 414 kts | 334° |
| 2026-05-04 01:18 | 31.09683 | -82.02528 | 16872 ft | 417 kts | 334° |
| 2026-05-04 01:18 | 31.12387 | -82.03787 | 17291 ft | 420 kts | 334° |
| 2026-05-04 01:18 | 31.15110 | -82.05069 | 17728 ft | 423 kts | 333° |
| 2026-05-04 01:19 | 31.17845 | -82.06368 | 18141 ft | 426 kts | 333° |
| 2026-05-04 01:19 | 31.20599 | -82.07681 | 18519 ft | 429 kts | 333° |
| 2026-05-04 01:19 | 31.23371 | -82.09007 | 18864 ft | 432 kts | 333° |
| 2026-05-04 01:19 | 31.26162 | -82.10342 | 19214 ft | 435 kts | 333° |
| 2026-05-04 01:20 | 31.28967 | -82.11686 | 19590 ft | 437 kts | 333° |
| 2026-05-04 01:20 | 31.31784 | -82.13036 | 19963 ft | 439 kts | 333° |
| 2026-05-04 01:20 | 31.34621 | -82.14396 | 20299 ft | 442 kts | 333° |
| 2026-05-04 01:20 | 31.37473 | -82.15764 | 20619 ft | 445 kts | 332° |
| 2026-05-04 01:21 | 31.40345 | -82.17142 | 20947 ft | 448 kts | 332° |
| 2026-05-04 01:21 | 31.43237 | -82.18531 | 21267 ft | 450 kts | 332° |
| 2026-05-04 01:21 | 31.46139 | -82.19926 | 21586 ft | 453 kts | 332° |
| 2026-05-04 01:21 | 31.49061 | -82.21331 | 21884 ft | 455 kts | 332° |
| 2026-05-04 01:22 | 31.51998 | -82.22744 | 22191 ft | 458 kts | 332° |
| 2026-05-04 01:22 | 31.54919 | -82.24150 | 22480 ft | 460 kts | 332° |
| 2026-05-04 01:22 | 31.57872 | -82.25573 | 22766 ft | 462 kts | 332° |
| 2026-05-04 01:22 | 31.60874 | -82.27021 | 23054 ft | 464 kts | 332° |
| 2026-05-04 01:23 | 31.63867 | -82.28465 | 23334 ft | 467 kts | 332° |
| 2026-05-04 01:23 | 31.66880 | -82.29919 | 23599 ft | 469 kts | 332° |
| 2026-05-04 01:23 | 31.69911 | -82.31381 | 23829 ft | 472 kts | 332° |
| 2026-05-04 01:23 | 31.73068 | -82.32565 | 24052 ft | 482 kts | 342° |
| 2026-05-04 01:24 | 31.76422 | -82.33093 | 24298 ft | 491 kts | 352° |
| 2026-05-04 01:24 | 31.79865 | -82.32970 | 24540 ft | 500 kts | 2° |
| 2026-05-04 01:24 | 31.83320 | -82.32365 | 24783 ft | 503 kts | 4° |
| 2026-05-04 01:24 | 31.86740 | -82.31698 | 25108 ft | 503 kts | 5° |
| 2026-05-04 01:25 | 31.90194 | -82.31012 | 25430 ft | 503 kts | 5° |
| 2026-05-04 01:25 | 31.93655 | -82.30336 | 25630 ft | 506 kts | 4° |
| 2026-05-04 01:25 | 31.97145 | -82.29673 | 25805 ft | 509 kts | 4° |
| 2026-05-04 01:25 | 32.00646 | -82.29025 | 26028 ft | 510 kts | 4° |
| 2026-05-04 01:26 | 32.04159 | -82.28384 | 26284 ft | 511 kts | 4° |
| 2026-05-04 01:26 | 32.07676 | -82.27747 | 26576 ft | 511 kts | 4° |
| 2026-05-04 01:26 | 32.11192 | -82.27112 | 26923 ft | 510 kts | 4° |
| 2026-05-04 01:26 | 32.14696 | -82.26479 | 27308 ft | 508 kts | 4° |
| 2026-05-04 01:27 | 32.18190 | -82.25846 | 27676 ft | 507 kts | 4° |
| 2026-05-04 01:27 | 32.21680 | -82.25214 | 27989 ft | 508 kts | 4° |
| 2026-05-04 01:27 | 32.25174 | -82.24581 | 28287 ft | 508 kts | 4° |
| 2026-05-04 01:27 | 32.28672 | -82.23945 | 28626 ft | 508 kts | 4° |
| 2026-05-04 01:28 | 32.32168 | -82.23309 | 28977 ft | 508 kts | 3° |
| 2026-05-04 01:28 | 32.35667 | -82.22672 | 29346 ft | 508 kts | 3° |
| 2026-05-04 01:28 | 32.39158 | -82.22035 | 29771 ft | 507 kts | 3° |
| 2026-05-04 01:28 | 32.42630 | -82.21400 | 30294 ft | 503 kts | 3° |
| 2026-05-04 01:29 | 32.46086 | -82.20768 | 30644 ft | 502 kts | 3° |
| 2026-05-04 01:29 | 32.49541 | -82.20137 | 30891 ft | 504 kts | 3° |
| 2026-05-04 01:29 | 32.53013 | -82.19504 | 31117 ft | 505 kts | 3° |
| 2026-05-04 01:29 | 32.56439 | -82.18879 | 31424 ft | 505 kts | 3° |
| 2026-05-04 01:30 | 32.59953 | -82.18235 | 31773 ft | 504 kts | 3° |
| 2026-05-04 01:30 | 32.63374 | -82.17607 | 32097 ft | 504 kts | 2° |
| 2026-05-04 01:30 | 32.66833 | -82.16972 | 32519 ft | 501 kts | 2° |
| 2026-05-04 01:30 | 32.70265 | -82.16340 | 32978 ft | 498 kts | 2° |
| 2026-05-04 01:31 | 32.73697 | -82.15710 | 33077 ft | 502 kts | 2° |
| 2026-05-04 01:31 | 32.80609 | -82.14442 | 33081 ft | 501 kts | 2° |
| 2026-05-04 01:32 | 32.87477 | -82.13175 | 33084 ft | 499 kts | 2° |
| 2026-05-04 01:32 | 32.94323 | -82.11912 | 33092 ft | 497 kts | 2° |
| 2026-05-04 01:33 | 33.01152 | -82.10650 | 33084 ft | 496 kts | 2° |
| 2026-05-04 01:33 | 33.07972 | -82.09388 | 33081 ft | 495 kts | 2° |
| 2026-05-04 01:34 | 33.14769 | -82.08129 | 33085 ft | 494 kts | 2° |
| 2026-05-04 01:34 | 33.21565 | -82.06868 | 33091 ft | 494 kts | 2° |
| 2026-05-04 01:35 | 33.28358 | -82.05605 | 33091 ft | 494 kts | 2° |
| 2026-05-04 01:35 | 33.35165 | -82.04338 | 33091 ft | 495 kts | 2° |
| 2026-05-04 01:36 | 33.41981 | -82.03066 | 33101 ft | 496 kts | 2° |
| 2026-05-04 01:36 | 33.48752 | -82.01801 | 33099 ft | 495 kts | 3° |
| 2026-05-04 01:37 | 33.55541 | -82.00529 | 33101 ft | 493 kts | 3° |
| 2026-05-04 01:37 | 33.62311 | -81.99260 | 33098 ft | 491 kts | 3° |
| 2026-05-04 01:38 | 33.69059 | -81.97993 | 33095 ft | 490 kts | 3° |
| 2026-05-04 01:38 | 33.75758 | -81.96731 | 32873 ft | 479 kts | 3° |
| 2026-05-04 01:38 | 33.78999 | -81.96045 | 32601 ft | 471 kts | 9° |
| 2026-05-04 01:39 | 33.82115 | -81.94809 | 32187 ft | 469 kts | 17° |
| 2026-05-04 01:39 | 33.85126 | -81.93344 | 31645 ft | 466 kts | 18° |
| 2026-05-04 01:39 | 33.88088 | -81.91890 | 31132 ft | 462 kts | 17° |
| 2026-05-04 01:39 | 33.91107 | -81.90478 | 30653 ft | 457 kts | 16° |
| 2026-05-04 01:40 | 33.94003 | -81.89171 | 30515 ft | 444 kts | 16° |
| 2026-05-04 01:40 | 33.96869 | -81.87880 | 30221 ft | 436 kts | 17° |
| 2026-05-04 01:40 | 33.99674 | -81.86548 | 29772 ft | 431 kts | 18° |
| 2026-05-04 01:40 | 34.02442 | -81.85216 | 29296 ft | 426 kts | 18° |
| 2026-05-04 01:41 | 34.05145 | -81.83782 | 28865 ft | 424 kts | 25° |
| 2026-05-04 01:41 | 34.07667 | -81.82009 | 28557 ft | 417 kts | 27° |
| 2026-05-04 01:41 | 34.10134 | -81.80179 | 28113 ft | 414 kts | 28° |
| 2026-05-04 01:41 | 34.12606 | -81.78332 | 27618 ft | 411 kts | 28° |
| 2026-05-04 01:42 | 34.15005 | -81.76554 | 27156 ft | 409 kts | 27° |
| 2026-05-04 01:42 | 34.17428 | -81.74776 | 26692 ft | 406 kts | 27° |
| 2026-05-04 01:42 | 34.19842 | -81.73017 | 26245 ft | 404 kts | 27° |
| 2026-05-04 01:42 | 34.22249 | -81.71268 | 25787 ft | 402 kts | 27° |
| 2026-05-04 01:43 | 34.24646 | -81.69528 | 25324 ft | 401 kts | 27° |
| 2026-05-04 01:43 | 34.27037 | -81.67791 | 24861 ft | 399 kts | 27° |
| 2026-05-04 01:43 | 34.29415 | -81.66062 | 24386 ft | 399 kts | 27° |
| 2026-05-04 01:43 | 34.31791 | -81.64333 | 23927 ft | 398 kts | 27° |
| 2026-05-04 01:44 | 34.34165 | -81.62603 | 23415 ft | 398 kts | 27° |
| 2026-05-04 01:44 | 34.36532 | -81.60877 | 22908 ft | 396 kts | 27° |
| 2026-05-04 01:44 | 34.38887 | -81.59158 | 22430 ft | 394 kts | 27° |
| 2026-05-04 01:44 | 34.41226 | -81.57450 | 21964 ft | 391 kts | 27° |
| 2026-05-04 01:45 | 34.43520 | -81.55773 | 21471 ft | 389 kts | 27° |
| 2026-05-04 01:45 | 34.45831 | -81.54083 | 21036 ft | 387 kts | 26° |
| 2026-05-04 01:45 | 34.50399 | -81.50699 | 20139 ft | 384 kts | 28° |
| 2026-05-04 01:46 | 34.52623 | -81.48919 | 19701 ft | 382 kts | 29° |
| 2026-05-04 01:46 | 34.54825 | -81.47131 | 19313 ft | 379 kts | 29° |
| 2026-05-04 01:46 | 34.56989 | -81.45386 | 19174 ft | 368 kts | 29° |
| 2026-05-04 01:46 | 34.59099 | -81.43694 | 18998 ft | 359 kts | 29° |
| 2026-05-04 01:47 | 34.61177 | -81.42039 | 18677 ft | 356 kts | 28° |
| 2026-05-04 01:47 | 34.63245 | -81.40396 | 18310 ft | 355 kts | 28° |
| 2026-05-04 01:47 | 34.65307 | -81.38759 | 17883 ft | 353 kts | 28° |
| 2026-05-04 01:47 | 34.67357 | -81.37130 | 17482 ft | 351 kts | 29° |
| 2026-05-04 01:48 | 34.69397 | -81.35507 | 17107 ft | 349 kts | 28° |
| 2026-05-04 01:48 | 34.71422 | -81.33893 | 16712 ft | 347 kts | 28° |
| 2026-05-04 01:48 | 34.73435 | -81.32289 | 16326 ft | 345 kts | 29° |
| 2026-05-04 01:48 | 34.75441 | -81.30689 | 15944 ft | 343 kts | 29° |
| 2026-05-04 01:49 | 34.77432 | -81.29099 | 15562 ft | 341 kts | 29° |
| 2026-05-04 01:49 | 34.79407 | -81.27521 | 15108 ft | 338 kts | 29° |
| 2026-05-04 01:49 | 34.81285 | -81.25826 | 14718 ft | 335 kts | 38° |
| 2026-05-04 01:49 | 34.82966 | -81.23889 | 14359 ft | 330 kts | 40° |
| 2026-05-04 01:50 | 34.84596 | -81.21948 | 13988 ft | 324 kts | 40° |
| 2026-05-04 01:50 | 34.86210 | -81.20065 | 13592 ft | 319 kts | 39° |
| 2026-05-04 01:50 | 34.87789 | -81.18252 | 13218 ft | 313 kts | 39° |
| 2026-05-04 01:50 | 34.89361 | -81.16457 | 12857 ft | 307 kts | 39° |
| 2026-05-04 01:51 | 34.90908 | -81.14694 | 12478 ft | 301 kts | 39° |
| 2026-05-04 01:51 | 34.92428 | -81.12962 | 12149 ft | 296 kts | 39° |
| 2026-05-04 01:51 | 34.93918 | -81.11264 | 11820 ft | 292 kts | 39° |
| 2026-05-04 01:51 | 34.95398 | -81.09578 | 11522 ft | 292 kts | 39° |
| 2026-05-04 01:52 | 34.96888 | -81.07880 | 11221 ft | 295 kts | 39° |
| 2026-05-04 01:52 | 34.97904 | -81.06721 | 11011 ft | 296 kts | 38° |
| 2026-05-04 01:52 | 34.99565 | -81.05358 | 10672 ft | 288 kts | 15° |
| 2026-05-04 01:52 | 35.01492 | -81.04999 | 10403 ft | 277 kts | 355° |
| 2026-05-04 01:53 | 35.03391 | -81.05170 | 10113 ft | 270 kts | 352° |
| 2026-05-04 01:53 | 35.05228 | -81.05363 | 10002 ft | 261 kts | 352° |
| 2026-05-04 01:53 | 35.07000 | -81.05536 | 9959 ft | 249 kts | 352° |
| 2026-05-04 01:53 | 35.08672 | -81.05690 | 9944 ft | 233 kts | 352° |
| 2026-05-04 01:54 | 35.10236 | -81.05830 | 9948 ft | 219 kts | 352° |
| 2026-05-04 01:54 | 35.11747 | -81.05968 | 9954 ft | 219 kts | 352° |
| 2026-05-04 01:54 | 35.13293 | -81.06109 | 9976 ft | 226 kts | 352° |
| 2026-05-04 01:54 | 35.14877 | -81.06253 | 9972 ft | 230 kts | 352° |
| 2026-05-04 01:55 | 35.16501 | -81.06399 | 9527 ft | 239 kts | 353° |
| 2026-05-04 01:55 | 35.18209 | -81.06552 | 8849 ft | 251 kts | 353° |
| 2026-05-04 01:55 | 35.19975 | -81.06710 | 8295 ft | 257 kts | 353° |
| 2026-05-04 01:55 | 35.21743 | -81.06865 | 8054 ft | 249 kts | 353° |
| 2026-05-04 01:56 | 35.23426 | -81.07012 | 7965 ft | 236 kts | 353° |
| 2026-05-04 01:56 | 35.25081 | -81.07159 | 7388 ft | 245 kts | 353° |
| 2026-05-04 01:56 | 35.26822 | -81.07316 | 6798 ft | 255 kts | 353° |
| 2026-05-04 01:56 | 35.28602 | -81.07475 | 6374 ft | 256 kts | 353° |
| 2026-05-04 01:57 | 35.30381 | -81.07632 | 5964 ft | 256 kts | 353° |
| 2026-05-04 01:57 | 35.32118 | -81.07785 | 5875 ft | 243 kts | 353° |
| 2026-05-04 01:57 | 35.33760 | -81.07930 | 5692 ft | 235 kts | 353° |
| 2026-05-04 01:57 | 35.35447 | -81.07976 | 5136 ft | 248 kts | 8° |
| 2026-05-04 01:58 | 35.36990 | -81.07088 | 5024 ft | 246 kts | 41° |
| 2026-05-04 01:58 | 35.37925 | -81.05421 | 4978 ft | 232 kts | 72° |
| 2026-05-04 01:58 | 35.38105 | -81.03570 | 4973 ft | 215 kts | 97° |
| 2026-05-04 01:58 | 35.37711 | -81.01827 | 4984 ft | 208 kts | 120° |
| 2026-05-04 01:59 | 35.36882 | -81.00383 | 4988 ft | 208 kts | 131° |
| 2026-05-04 01:59 | 35.35995 | -80.98999 | 4925 ft | 204 kts | 130° |
| 2026-05-04 01:59 | 35.35140 | -80.97663 | 4774 ft | 194 kts | 131° |
| 2026-05-04 01:59 | 35.34247 | -80.96511 | 4546 ft | 180 kts | 149° |
| 2026-05-04 02:00 | 35.33107 | -80.96050 | 4071 ft | 168 kts | 185° |
| 2026-05-04 02:00 | 35.31965 | -80.96109 | 3661 ft | 162 kts | 182° |
| 2026-05-04 02:00 | 35.30850 | -80.96022 | 3242 ft | 159 kts | 180° |
| 2026-05-04 02:00 | 35.29763 | -80.95924 | 2806 ft | 155 kts | 179° |
| 2026-05-04 02:01 | 35.28700 | -80.95832 | 2371 ft | 152 kts | 179° |
| 2026-05-04 02:01 | 35.27650 | -80.95741 | 1922 ft | 150 kts | 179° |
| 2026-05-04 02:01 | 35.26611 | -80.95652 | 1513 ft | 149 kts | 178° |
| 2026-05-04 02:01 | 35.25575 | -80.95562 | 1361 ft | 156 kts | 177° |
| 2026-05-04 02:02 | 35.24448 | -80.95442 | 1116 ft | 165 kts | 175° |
| 2026-05-04 02:02 | 35.23329 | -80.95358 | 915 ft | 161 kts | 177° |
| 2026-05-04 02:02 | 35.22189 | -80.95262 | 737 ft | 162 kts | 177° |
| 2026-05-04 02:02 | 35.21071 | -80.95166 | 795 ft | 157 kts | 176° |
| 2026-05-04 02:03 | 35.19997 | -80.95017 | 1391 ft | 164 kts | 173° |
| 2026-05-04 02:03 | 35.18801 | -80.95058 | 1852 ft | 178 kts | 198° |
| 2026-05-04 02:03 | 35.17778 | -80.95902 | 2443 ft | 186 kts | 233° |
| 2026-05-04 02:03 | 35.17358 | -80.97440 | 2860 ft | 204 kts | 269° |
| 2026-05-04 02:04 | 35.17732 | -80.99119 | 3587 ft | 200 kts | 292° |
| 2026-05-04 02:04 | 35.18387 | -81.00501 | 4577 ft | 188 kts | 302° |
| 2026-05-04 02:04 | 35.19393 | -81.01708 | 4588 ft | 219 kts | 325° |
| 2026-05-04 02:04 | 35.20840 | -81.02335 | 4401 ft | 221 kts | 350° |
| 2026-05-04 02:05 | 35.22326 | -81.02275 | 4455 ft | 209 kts | 4° |
| 2026-05-04 02:05 | 35.23751 | -81.02337 | 4372 ft | 200 kts | 335° |
| 2026-05-04 02:05 | 35.24981 | -81.03245 | 4388 ft | 212 kts | 324° |
| 2026-05-04 02:05 | 35.26268 | -81.04146 | 4378 ft | 213 kts | 329° |
| 2026-05-04 02:06 | 35.27603 | -81.04916 | 4382 ft | 210 kts | 333° |
| 2026-05-04 02:06 | 35.28952 | -81.05585 | 4394 ft | 210 kts | 336° |
| 2026-05-04 02:06 | 35.30399 | -81.06238 | 4453 ft | 237 kts | 337° |
| 2026-05-04 02:06 | 35.32039 | -81.06942 | 4475 ft | 256 kts | 338° |
| 2026-05-04 02:07 | 35.33734 | -81.07644 | 4444 ft | 258 kts | 339° |
| 2026-05-04 02:07 | 35.35457 | -81.08257 | 4388 ft | 260 kts | 351° |
| 2026-05-04 02:07 | 35.37207 | -81.07934 | 4298 ft | 252 kts | 24° |
| 2026-05-04 02:07 | 35.38526 | -81.06660 | 4200 ft | 235 kts | 52° |
| 2026-05-04 02:08 | 35.39222 | -81.04953 | 4076 ft | 217 kts | 77° |
| 2026-05-04 02:08 | 35.39306 | -81.03186 | 3971 ft | 211 kts | 101° |
| 2026-05-04 02:08 | 35.38892 | -81.01495 | 3851 ft | 204 kts | 120° |
| 2026-05-04 02:08 | 35.38075 | -81.00123 | 3708 ft | 197 kts | 142° |
| 2026-05-04 02:09 | 35.37038 | -80.99080 | 3573 ft | 186 kts | 145° |
| 2026-05-04 02:09 | 35.36075 | -80.98115 | 3348 ft | 173 kts | 146° |
| 2026-05-04 02:09 | 35.35172 | -80.97214 | 3098 ft | 163 kts | 146° |
| 2026-05-04 02:09 | 35.34176 | -80.96341 | 2964 ft | 183 kts | 161° |
| 2026-05-04 02:10 | 35.32985 | -80.96214 | 2793 ft | 168 kts | 184° |
| 2026-05-04 02:10 | 35.31837 | -80.96126 | 2553 ft | 161 kts | 178° |
| 2026-05-04 02:10 | 35.30727 | -80.96011 | 2361 ft | 159 kts | 179° |
| 2026-05-04 02:10 | 35.29614 | -80.95911 | 2144 ft | 160 kts | 179° |
| 2026-05-04 02:11 | 35.28511 | -80.95815 | 1919 ft | 158 kts | 178° |
| 2026-05-04 02:11 | 35.27405 | -80.95726 | 1697 ft | 161 kts | 179° |
| 2026-05-04 02:11 | 35.26278 | -80.95644 | 1374 ft | 161 kts | 176° |
| 2026-05-04 02:11 | 35.25179 | -80.95529 | 1153 ft | 159 kts | 175° |
| 2026-05-04 02:12 | 35.24102 | -80.95430 | 960 ft | 155 kts | 177° |
| 2026-05-04 02:12 | 35.23034 | -80.95336 | 770 ft | 152 kts | 177° |
| 2026-05-04 02:12 | 35.21981 | -80.95253 | 724 ft | 146 kts | 176° |
| 2026-05-04 02:12 | 35.21101 | -80.95178 | 720 ft | 93 kts | 176° |
| 2026-05-04 02:13 | 35.20781 | -80.95143 | 725 ft | 26 kts | 171° |
| 2026-05-04 02:13 | 35.20714 | -80.95116 | 728 ft | 9 kts | 154° |
| 2026-05-04 02:13 | 35.20660 | -80.95081 | 727 ft | 9 kts | 148° |
| 2026-05-04 02:13 | 35.20606 | -80.95036 | 727 ft | 10 kts | 142° |
| 2026-05-04 02:14 | 35.20583 | -80.94966 | 728 ft | 9 kts | 76° |
| 2026-05-04 02:14 | 35.20602 | -80.94928 | 727 ft | 3 kts | 64° |
| 2026-05-04 02:14 | 35.20607 | -80.94920 | 726 ft | 1 kts | 36° |
| 2026-05-04 02:14 | 35.20647 | -80.94927 | 725 ft | 12 kts | 349° |
| 2026-05-04 02:15 | 35.20762 | -80.94939 | 724 ft | 19 kts | 11° |
| 2026-05-04 02:15 | 35.20881 | -80.94867 | 724 ft | 19 kts | 1° |
| 2026-05-04 02:15 | 35.21014 | -80.94879 | 723 ft | 20 kts | 354° |
| 2026-05-04 02:15 | 35.21163 | -80.94890 | 722 ft | 23 kts | 356° |
| 2026-05-04 02:16 | 35.21301 | -80.94903 | 721 ft | 21 kts | 356° |
| 2026-05-04 02:16 | 35.21456 | -80.94918 | 721 ft | 21 kts | 355° |
| 2026-05-04 02:16 | 35.21574 | -80.94889 | 718 ft | 16 kts | 42° |
| 2026-05-04 02:16 | 35.21658 | -80.94777 | 719 ft | 19 kts | 48° |
| 2026-05-04 02:17 | 35.21767 | -80.94701 | 718 ft | 9 kts | 31° |
| 2026-05-04 02:17 | 35.21799 | -80.94656 | 719 ft | 6 kts | 62° |
| 2026-05-04 02:17 | 35.21801 | -80.94612 | 722 ft | 5 kts | 96° |
| 2026-05-04 02:17 | 35.21800 | -80.94599 | 721 ft | 0 kts | 96° |